Metar Aviation Weather Data YMML

11°C Temp
2°C Dewpoint
% Humidity
Temperature
32 KM/H
20 MPH
17 KTS
170°
Due South

Wind Speed
Mostly Scattered
Clouds
Pressure 1019.92 (hPa) - 30.12 (in)
Visibility 6.2 (mi) - 10 (km)

Current Conditions
YMML
Metar :YMML 160115Z 17017G28KT 9999 SCT038 SCT220 11/02 Q1020 RF00/0/000/0
Mon 16th September 11:15 am

  Metar Aviation API Data Provided by https://www.checkwx.com/ PHP scripts by weather34.com ©2019